createdAt,value
2017-04-28T00:02:16.260Z,3.50
2017-04-28T00:04:44.591Z,3.50
2017-04-28T00:07:13.800Z,3.50
2017-04-28T00:09:42.169Z,3.50
2017-04-28T00:12:10.576Z,3.50
2017-04-28T00:14:38.911Z,3.60
2017-04-28T00:17:26.177Z,3.60
2017-04-28T00:19:54.489Z,3.60
2017-04-28T00:22:23.556Z,3.60
2017-04-28T00:24:51.889Z,3.60
2017-04-28T00:27:20.235Z,3.60
2017-04-28T00:29:48.570Z,3.60
2017-04-28T00:32:16.939Z,3.60
2017-04-28T00:35:02.892Z,3.60
2017-04-28T00:37:31.211Z,3.60
2017-04-28T00:39:59.562Z,3.50
2017-04-28T00:42:27.896Z,3.50
2017-04-28T00:44:56.504Z,3.50
2017-04-28T00:47:24.842Z,3.50
2017-04-28T00:49:53.166Z,3.50
2017-04-28T00:52:21.594Z,3.50
2017-04-28T00:54:50.661Z,3.50
2017-04-28T00:57:19.727Z,3.60
2017-04-28T00:59:48.374Z,3.50
2017-04-28T01:02:18.177Z,3.50
2017-04-28T01:04:46.729Z,3.50
2017-04-28T01:07:15.978Z,3.50
2017-04-28T01:09:44.305Z,3.50
2017-04-28T01:12:12.631Z,3.50
2017-04-28T01:14:40.943Z,3.50
2017-04-28T01:17:10.122Z,3.50
2017-04-28T01:19:39.193Z,3.50
2017-04-28T01:22:07.539Z,3.40
2017-04-28T01:24:35.885Z,3.40
2017-04-28T01:27:04.187Z,3.40
2017-04-28T01:29:32.540Z,3.40
2017-04-28T01:32:00.861Z,3.30
2017-04-28T01:34:30.036Z,3.30
2017-04-28T01:36:59.108Z,3.30
2017-04-28T01:39:27.427Z,3.30
2017-04-28T01:41:56.507Z,3.30
2017-04-28T01:44:24.807Z,3.30
2017-04-28T01:46:53.839Z,3.30
2017-04-28T01:49:22.764Z,3.30
2017-04-28T01:51:51.148Z,3.30
2017-04-28T01:54:19.527Z,3.30
2017-04-28T01:56:47.821Z,3.30
2017-04-28T01:59:16.145Z,3.30
2017-04-28T02:01:45.329Z,3.30
2017-04-28T02:04:13.780Z,3.20
2017-04-28T02:06:42.136Z,3.30
2017-04-28T02:09:10.512Z,3.20
2017-04-28T02:11:38.844Z,3.20
2017-04-28T02:14:07.157Z,3.20
2017-04-28T02:16:35.471Z,3.20
2017-04-28T02:19:03.820Z,3.20
2017-04-28T02:21:32.170Z,3.20
2017-04-28T02:24:00.452Z,3.20
2017-04-28T02:26:28.752Z,3.20
2017-04-28T02:28:57.064Z,3.20
2017-04-28T02:31:25.361Z,3.20
2017-04-28T02:33:53.724Z,3.20
2017-04-28T02:36:23.022Z,3.10
2017-04-28T02:38:51.381Z,3.10
2017-04-28T02:41:20.421Z,3.10
2017-04-28T02:43:48.793Z,3.10
2017-04-28T02:46:17.160Z,3.10
2017-04-28T02:48:45.804Z,3.10
2017-04-28T02:51:15.090Z,3.10
2017-04-28T02:53:43.401Z,3.10
2017-04-28T02:56:11.721Z,3.10
2017-04-28T02:58:40.864Z,3.00
2017-04-28T03:01:09.986Z,3.00
2017-04-28T03:03:38.281Z,3.00
2017-04-28T03:06:06.615Z,3.00
2017-04-28T03:08:34.900Z,3.00
2017-04-28T03:11:03.916Z,3.10
2017-04-28T03:13:32.233Z,3.10
2017-04-28T03:16:01.274Z,3.10
2017-04-28T03:18:29.624Z,3.10
2017-04-28T03:20:58.705Z,3.10
2017-04-28T03:26:01.708Z,3.20
2017-04-28T03:28:30.809Z,3.10
2017-04-28T03:30:59.115Z,3.20
2017-04-28T03:33:28.148Z,3.10
2017-04-28T03:35:56.461Z,3.20
2017-04-28T03:38:24.752Z,3.20
2017-04-28T03:40:53.111Z,3.20
2017-04-28T03:43:23.190Z,3.20
2017-04-28T03:45:52.789Z,3.20
2017-04-28T03:48:23.394Z,3.20
2017-04-28T03:50:51.713Z,3.20
2017-04-28T03:53:20.030Z,3.20
2017-04-28T03:55:49.315Z,3.20
2017-04-28T03:58:17.647Z,3.20
2017-04-28T04:00:47.528Z,3.20
2017-04-28T04:03:15.879Z,3.20
2017-04-28T04:05:44.172Z,3.20
2017-04-28T04:08:12.488Z,3.20
2017-04-28T04:10:40.808Z,3.20
2017-04-28T04:13:10.958Z,3.20
2017-04-28T04:15:39.277Z,3.30
2017-04-28T04:18:07.622Z,3.30
2017-04-28T04:20:35.953Z,3.30
2017-04-28T04:23:04.292Z,3.30
2017-04-28T04:25:32.608Z,3.40
2017-04-28T04:28:00.917Z,3.40
2017-04-28T04:30:29.275Z,3.40
2017-04-28T04:32:57.570Z,3.50
2017-04-28T04:35:25.897Z,3.50
2017-04-28T04:37:55.045Z,3.50
2017-04-28T04:40:23.331Z,3.60
2017-04-28T04:42:51.677Z,3.60
2017-04-28T04:45:20.818Z,3.60
2017-04-28T04:47:49.364Z,3.70
2017-04-28T04:50:17.687Z,3.70
2017-04-28T04:52:51.388Z,3.70
2017-04-28T04:55:20.797Z,3.80
2017-04-28T04:57:49.118Z,3.80
2017-04-28T05:00:18.316Z,3.80
2017-04-28T05:02:46.681Z,3.90
2017-04-28T05:05:15.073Z,3.90
2017-04-28T05:07:45.331Z,3.90
2017-04-28T05:10:13.766Z,4.00
2017-04-28T05:12:42.828Z,4.00
2017-04-28T05:15:11.803Z,4.00
2017-04-28T05:17:40.643Z,4.00
2017-04-28T05:20:10.598Z,4.00
2017-04-28T05:22:39.711Z,4.00
2017-04-28T05:25:08.032Z,4.10
2017-04-28T05:27:36.460Z,4.10
2017-04-28T05:30:08.254Z,4.10
2017-04-28T05:32:36.628Z,4.20
2017-04-28T05:35:05.039Z,4.30
2017-04-28T05:37:33.378Z,4.30
2017-04-28T05:40:02.770Z,4.30
2017-04-28T05:42:31.842Z,4.30
2017-04-28T05:45:00.198Z,4.40
2017-04-28T05:47:28.522Z,4.40
2017-04-28T05:49:56.865Z,4.30
2017-04-28T05:52:25.251Z,4.30
2017-04-28T05:54:53.624Z,4.30
2017-04-28T05:57:21.980Z,4.20
2017-04-28T05:59:50.328Z,4.20
2017-04-28T06:02:18.642Z,4.20
2017-04-28T06:04:48.165Z,4.30
2017-04-28T06:07:16.664Z,4.30
2017-04-28T06:09:44.984Z,4.30
2017-04-28T06:12:14.056Z,4.40
2017-04-28T06:14:42.394Z,4.50
2017-04-28T06:17:11.456Z,4.50
2017-04-28T06:19:39.818Z,4.50
2017-04-28T06:22:08.174Z,4.40
2017-04-28T06:24:36.496Z,4.40
2017-04-28T06:27:04.829Z,4.40
2017-04-28T06:29:33.155Z,4.50
2017-04-28T06:32:01.490Z,4.50
2017-04-28T06:34:30.532Z,4.50
2017-04-28T06:36:58.837Z,4.50
2017-04-28T06:39:27.195Z,4.50
2017-04-28T06:41:55.516Z,4.60
2017-04-28T06:44:24.586Z,4.60
2017-04-28T06:46:52.917Z,4.60
2017-04-28T06:49:21.999Z,4.60
2017-04-28T06:51:50.307Z,4.70
2017-04-28T06:54:18.669Z,4.70
2017-04-28T06:56:47.840Z,4.80
2017-04-28T06:59:16.158Z,5.00
2017-04-28T07:01:45.228Z,5.10
2017-04-28T07:04:13.593Z,5.20
2017-04-28T07:06:41.931Z,5.40
2017-04-28T07:09:11.018Z,5.30
2017-04-28T07:11:40.168Z,5.40
2017-04-28T07:14:08.464Z,5.40
2017-04-28T07:16:36.772Z,5.60
2017-04-28T07:19:05.087Z,5.60
2017-04-28T07:21:33.390Z,5.70
2017-04-28T07:24:01.724Z,5.80
2017-04-28T07:26:30.029Z,5.90
2017-04-28T07:28:58.784Z,5.80
2017-04-28T07:31:27.090Z,5.80
2017-04-28T07:33:56.124Z,5.70
2017-04-28T07:36:24.470Z,5.60
2017-04-28T07:38:53.523Z,5.60
2017-04-28T07:41:21.863Z,5.80
2017-04-28T07:43:50.189Z,5.80
2017-04-28T07:46:18.521Z,6.00
2017-04-28T07:48:47.433Z,6.00
2017-04-28T07:51:18.227Z,5.90
2017-04-28T07:53:46.644Z,5.70
2017-04-28T07:56:15.997Z,5.80
2017-04-28T07:58:44.314Z,5.90
2017-04-28T08:01:13.370Z,6.00
2017-04-28T08:03:41.708Z,6.40
2017-04-28T08:06:10.013Z,6.80
2017-04-28T08:08:38.360Z,7.00
2017-04-28T08:11:07.410Z,6.90
2017-04-28T08:13:35.707Z,7.00
2017-04-28T08:16:04.065Z,7.20
2017-04-28T08:18:32.381Z,7.10
2017-04-28T08:21:00.713Z,6.90
2017-04-28T08:23:29.018Z,6.60
2017-04-28T08:25:57.367Z,6.30
2017-04-28T08:28:26.410Z,6.40
2017-04-28T08:30:54.732Z,6.50
2017-04-28T08:33:23.806Z,6.70
2017-04-28T08:35:52.106Z,7.10
2017-04-28T08:38:20.440Z,7.50
2017-04-28T08:40:48.745Z,7.90
2017-04-28T08:43:17.106Z,8.20
2017-04-28T08:45:45.477Z,8.40
2017-04-28T08:48:13.797Z,8.50
2017-04-28T08:50:42.109Z,8.60
2017-04-28T08:53:12.122Z,8.50
2017-04-28T08:55:41.225Z,8.70
2017-04-28T08:58:10.393Z,8.80
2017-04-28T09:00:38.694Z,9.10
2017-04-28T09:03:06.999Z,9.00
2017-04-28T09:05:36.060Z,8.50
2017-04-28T09:08:04.388Z,8.30
2017-04-28T09:10:32.704Z,8.00
2017-04-28T09:13:01.026Z,8.30
2017-04-28T09:15:29.361Z,9.20
2017-04-28T09:17:57.651Z,9.20
2017-04-28T09:20:25.972Z,8.80
2017-04-28T09:22:54.302Z,8.20
2017-04-28T09:25:23.477Z,7.80
2017-04-28T09:27:52.542Z,7.50
2017-04-28T09:30:20.852Z,7.20
2017-04-28T09:32:49.949Z,7.00
2017-04-28T09:35:19.045Z,6.80
2017-04-28T09:37:47.345Z,6.80
2017-04-28T09:40:15.724Z,6.70
2017-04-28T09:42:44.039Z,6.70
2017-04-28T09:45:12.375Z,6.60
2017-04-28T09:47:41.438Z,6.60
2017-04-28T09:50:09.818Z,6.60
2017-04-28T09:52:38.125Z,6.60
2017-04-28T09:55:06.473Z,6.60
2017-04-28T09:57:34.796Z,6.60
2017-04-28T10:00:03.112Z,6.60
2017-04-28T10:02:31.436Z,6.60
2017-04-28T10:04:59.729Z,6.70
2017-04-28T10:07:28.062Z,6.60
2017-04-28T10:09:56.359Z,6.50
2017-04-28T10:12:24.658Z,6.50
2017-04-28T10:14:52.998Z,6.50
2017-04-28T10:17:21.309Z,6.50
2017-04-28T10:19:49.652Z,6.50
2017-04-28T10:22:18.905Z,6.40
2017-04-28T10:24:47.222Z,6.30
2017-04-28T10:27:16.458Z,6.20
2017-04-28T10:29:44.799Z,6.20
2017-04-28T10:32:13.104Z,6.20
2017-04-28T10:34:42.849Z,6.40
2017-04-28T10:37:11.161Z,6.60
2017-04-28T10:39:40.423Z,6.70
2017-04-28T10:42:08.740Z,6.90
2017-04-28T10:44:37.032Z,7.00
2017-04-28T10:47:05.362Z,7.10
2017-04-28T10:49:33.665Z,7.10
2017-04-28T10:52:02.028Z,7.10
2017-04-28T10:54:30.352Z,7.10
2017-04-28T10:56:58.663Z,7.10
2017-04-28T10:59:27.762Z,7.10
2017-04-28T11:01:56.107Z,7.10
2017-04-28T11:04:24.417Z,7.00
2017-04-28T11:06:52.709Z,6.90
2017-04-28T11:09:21.056Z,6.80
2017-04-28T11:11:49.401Z,6.60
2017-04-28T11:14:17.700Z,6.60
2017-04-28T11:16:46.070Z,6.50
2017-04-28T11:19:14.385Z,6.50
2017-04-28T11:21:42.745Z,6.60
2017-04-28T11:24:11.076Z,6.70
2017-04-28T11:26:40.081Z,6.90
2017-04-28T11:29:08.384Z,7.00
2017-04-28T11:31:37.476Z,7.10
2017-04-28T11:34:05.809Z,7.20
2017-04-28T11:36:34.187Z,7.30
2017-04-28T11:39:02.524Z,7.50
2017-04-28T11:41:31.561Z,7.30
2017-04-28T11:43:59.895Z,7.40
2017-04-28T11:46:28.233Z,7.40
2017-04-28T11:48:56.572Z,7.50
2017-04-28T11:51:24.153Z,7.50
2017-04-28T11:53:52.516Z,7.60
2017-04-28T11:56:20.820Z,7.70
2017-04-28T11:58:49.187Z,7.80
2017-04-28T12:01:18.239Z,7.80
2017-04-28T12:03:46.596Z,8.00
2017-04-28T12:06:14.903Z,8.20
2017-04-28T12:08:43.228Z,8.00
2017-04-28T12:11:12.295Z,8.10
2017-04-28T12:13:40.598Z,8.20
2017-04-28T12:16:08.904Z,8.40
2017-04-28T12:18:37.210Z,8.30
2017-04-28T12:21:05.537Z,8.20
2017-04-28T12:23:33.836Z,8.00
2017-04-28T12:26:02.869Z,8.10
2017-04-28T12:28:31.324Z,8.30
2017-04-28T12:30:59.644Z,8.50
2017-04-28T12:33:28.789Z,8.50
2017-04-28T12:35:57.157Z,8.50
2017-04-28T12:38:26.169Z,8.60
2017-04-28T12:40:54.449Z,8.60
2017-04-28T12:43:23.625Z,8.40
2017-04-28T12:45:51.921Z,8.50
2017-04-28T12:48:20.221Z,8.70
2017-04-28T12:50:49.317Z,8.70
2017-04-28T12:53:17.647Z,8.50
2017-04-28T12:55:45.948Z,8.40
2017-04-28T12:58:14.288Z,8.30
2017-04-28T13:00:42.607Z,8.10
2017-04-28T13:03:10.911Z,7.90
2017-04-28T13:05:39.306Z,7.90
2017-04-28T13:08:08.356Z,7.70
2017-04-28T13:10:36.667Z,7.30
2017-04-28T13:13:05.770Z,6.90
2017-04-28T13:15:34.090Z,6.70
2017-04-28T13:18:03.179Z,6.60
2017-04-28T13:20:32.313Z,6.50
2017-04-28T13:23:00.606Z,6.50
2017-04-28T13:25:28.901Z,6.60
2017-04-28T13:27:57.258Z,6.60
2017-04-28T13:30:25.571Z,6.60
2017-04-28T13:32:53.865Z,6.60
2017-04-28T13:35:22.213Z,6.70
2017-04-28T13:37:50.541Z,6.70
2017-04-28T13:40:18.866Z,6.90
2017-04-28T13:42:47.215Z,7.10
2017-04-28T13:45:15.532Z,7.20
2017-04-28T13:47:43.832Z,7.20
2017-04-28T13:50:12.159Z,7.20
2017-04-28T13:52:40.485Z,7.30
2017-04-28T13:55:08.800Z,7.30
2017-04-28T13:57:37.400Z,7.30
2017-04-28T14:00:05.703Z,7.30
2017-04-28T14:02:36.697Z,7.10
2017-04-28T14:05:05.029Z,6.90
2017-04-28T14:07:34.092Z,6.70
2017-04-28T14:10:02.429Z,6.70
2017-04-28T14:12:30.723Z,6.60
2017-04-28T14:14:59.028Z,6.70
2017-04-28T14:17:27.391Z,6.90
2017-04-28T14:19:55.690Z,7.00
2017-04-28T14:22:24.010Z,7.00
2017-04-28T14:24:52.330Z,7.10
2017-04-28T14:27:20.634Z,7.20
2017-04-28T14:29:48.964Z,7.30
2017-04-28T14:32:18.005Z,7.30
2017-04-28T14:34:46.321Z,7.30
2017-04-28T14:37:14.687Z,7.40
2017-04-28T14:39:42.985Z,7.40
2017-04-28T14:42:11.300Z,7.40
2017-04-28T14:44:40.448Z,7.30
2017-04-28T14:47:08.760Z,7.30
2017-04-28T14:49:37.067Z,7.40
2017-04-28T14:57:49.979Z,7.80
2017-04-28T15:00:19.051Z,7.80
2017-04-28T15:02:47.402Z,7.80
2017-04-28T15:05:16.796Z,7.80
2017-04-28T15:07:45.125Z,7.90
2017-04-28T15:10:13.483Z,8.00
2017-04-28T15:12:41.815Z,8.10
2017-04-28T15:15:10.114Z,8.10
2017-04-28T15:17:39.198Z,8.20
2017-04-28T15:20:07.630Z,8.30
2017-04-28T15:22:35.947Z,8.40
2017-04-28T15:25:04.320Z,8.40
2017-04-28T15:27:32.634Z,8.40
2017-04-28T15:30:01.756Z,8.50
2017-04-28T15:32:30.701Z,8.60
2017-04-28T15:34:59.050Z,8.60
2017-04-28T15:37:29.345Z,8.50
2017-04-28T15:39:59.026Z,8.50
2017-04-28T15:42:27.374Z,8.50
2017-04-28T15:44:55.683Z,8.40
2017-04-28T15:47:24.046Z,8.20
2017-04-28T15:49:52.382Z,8.00
2017-04-28T15:52:21.553Z,7.70
2017-04-28T15:54:50.673Z,7.60
2017-04-28T15:57:18.991Z,7.40
2017-04-28T15:59:47.450Z,7.20
2017-04-28T16:02:16.515Z,7.10
2017-04-28T16:04:44.858Z,7.20
2017-04-28T16:07:13.206Z,7.30
2017-04-28T16:09:43.478Z,7.50
2017-04-28T16:12:12.698Z,7.60
2017-04-28T16:14:41.730Z,7.70
2017-04-28T16:17:10.104Z,7.80
2017-04-28T16:19:38.444Z,7.80
2017-04-28T16:22:06.757Z,7.70
2017-04-28T16:24:35.121Z,7.50
2017-04-28T16:27:03.429Z,7.40
2017-04-28T16:29:31.741Z,7.30
2017-04-28T16:32:00.843Z,7.20
2017-04-28T16:34:29.920Z,7.00
2017-04-28T16:36:59.243Z,7.00
2017-04-28T16:39:27.615Z,6.90
2017-04-28T16:42:00.291Z,6.80
2017-04-28T16:44:28.643Z,6.70
2017-04-28T16:46:57.012Z,6.70
2017-04-28T16:49:25.390Z,6.60
2017-04-28T16:51:53.713Z,6.60
2017-04-28T16:57:15.590Z,6.80
2017-04-28T16:59:43.966Z,6.70
2017-04-28T17:02:13.475Z,6.60
2017-04-28T17:04:41.868Z,6.70
2017-04-28T17:07:10.205Z,6.70
2017-04-28T17:09:38.534Z,6.60
2017-04-28T17:12:06.944Z,6.60
2017-04-28T17:14:35.558Z,6.50
2017-04-28T17:17:03.932Z,6.50
2017-04-28T17:19:32.247Z,6.50
2017-04-28T17:22:00.630Z,6.50
2017-04-28T17:24:29.717Z,6.50
2017-04-28T17:29:50.338Z,6.40
2017-04-28T17:32:19.489Z,6.30
2017-04-28T17:34:48.805Z,6.30
2017-04-28T17:37:17.163Z,6.20
2017-04-28T17:39:45.494Z,6.20
2017-04-28T17:42:13.851Z,6.10
2017-04-28T17:44:42.171Z,6.10
2017-04-28T17:47:10.546Z,6.00
2017-04-28T17:55:25.759Z,5.90
2017-04-28T17:57:56.161Z,5.90
2017-04-28T18:00:24.497Z,5.80
2017-04-28T18:05:54.229Z,5.90
2017-04-28T18:10:50.948Z,6.00
2017-04-28T18:13:20.014Z,5.90
2017-04-28T18:15:48.320Z,5.90
2017-04-28T18:18:16.600Z,5.90
2017-04-28T18:20:44.913Z,5.90
2017-04-28T18:23:13.231Z,5.80
2017-04-28T18:25:41.514Z,5.80
2017-04-28T18:28:09.789Z,5.70
2017-04-28T18:30:38.121Z,5.60
2017-04-28T18:33:06.418Z,5.50
2017-04-28T18:35:34.738Z,5.50
2017-04-28T18:38:03.068Z,5.40
2017-04-28T18:40:31.357Z,5.30
2017-04-28T18:42:59.656Z,5.30
2017-04-28T18:45:27.981Z,5.20
2017-04-28T18:47:57.004Z,5.20
2017-04-28T18:50:25.282Z,5.20
2017-04-28T18:52:53.664Z,5.10
2017-04-28T18:55:21.944Z,5.10
2017-04-28T18:57:50.243Z,5.10
2017-04-28T19:00:18.569Z,5.10
2017-04-28T19:02:47.650Z,5.10
2017-04-28T19:05:16.670Z,5.00
2017-04-28T19:07:44.993Z,5.00
2017-04-28T19:10:13.290Z,5.00
2017-04-28T19:12:41.569Z,5.00
2017-04-28T19:15:09.893Z,5.10
2017-04-28T19:17:38.192Z,5.10
2017-04-28T19:20:06.473Z,5.10
2017-04-28T19:22:34.805Z,5.10
2017-04-28T19:25:03.839Z,5.10
2017-04-28T19:27:34.163Z,5.10
2017-04-28T19:30:02.440Z,5.10
2017-04-28T19:32:30.732Z,5.00
2017-04-28T19:34:59.077Z,5.00
2017-04-28T19:37:27.369Z,4.90
2017-04-28T19:39:55.657Z,4.70
2017-04-28T19:42:24.127Z,4.50
2017-04-28T19:44:53.129Z,4.20
2017-04-28T19:47:21.427Z,4.00
2017-04-28T19:49:49.781Z,3.90
2017-04-28T19:52:18.073Z,3.90
2017-04-28T19:54:46.348Z,3.90
2017-04-28T19:57:14.681Z,3.90
2017-04-28T19:59:43.705Z,3.90
2017-04-28T20:02:11.992Z,4.00
2017-04-28T20:04:40.317Z,4.00
2017-04-28T20:07:08.603Z,4.00
2017-04-28T20:09:36.884Z,3.90
2017-04-28T20:12:05.208Z,3.90
2017-04-28T20:14:33.493Z,3.90
2017-04-28T20:17:01.768Z,3.80
2017-04-28T20:19:30.096Z,3.70
2017-04-28T20:21:59.129Z,3.70
2017-04-28T20:24:27.417Z,3.60
2017-04-28T20:26:55.753Z,3.60
2017-04-28T20:29:24.774Z,3.50
2017-04-28T20:31:53.062Z,3.60
2017-04-28T20:34:21.432Z,3.60
2017-04-28T20:36:49.721Z,3.70
2017-04-28T20:39:18.014Z,3.70
2017-04-28T20:41:46.337Z,3.80
2017-04-28T20:44:15.468Z,3.80
2017-04-28T20:46:43.768Z,3.80
2017-04-28T20:49:12.076Z,3.80
2017-04-28T20:51:40.372Z,3.90
2017-04-28T20:54:08.674Z,3.90
2017-04-28T20:56:36.999Z,3.90
2017-04-28T20:59:05.292Z,3.90
2017-04-28T21:01:33.588Z,3.80
2017-04-28T21:04:02.661Z,3.80
2017-04-28T21:06:30.932Z,3.80
2017-04-28T21:08:59.213Z,3.80
2017-04-28T21:11:27.536Z,3.90
2017-04-28T21:13:55.816Z,3.80
2017-04-28T21:16:24.098Z,3.80
2017-04-28T21:18:52.421Z,3.80
2017-04-28T21:21:20.711Z,3.70
2017-04-28T21:23:49.027Z,3.70
2017-04-28T21:26:17.358Z,3.60
2017-04-28T21:28:45.635Z,3.50
2017-04-28T21:31:13.919Z,3.40
2017-04-28T21:33:42.237Z,3.30
2017-04-28T21:36:11.257Z,3.20
2017-04-28T21:38:39.544Z,3.10
2017-04-28T21:41:07.863Z,3.10
2017-04-28T21:43:36.149Z,3.00
2017-04-28T21:46:05.182Z,2.80
2017-04-28T21:48:33.505Z,2.90
2017-04-28T21:51:01.879Z,2.90
2017-04-28T21:53:30.371Z,2.90
2017-04-28T21:55:59.499Z,2.80
2017-04-28T21:58:27.788Z,2.70
2017-04-28T22:00:56.108Z,2.70
2017-04-28T22:03:24.590Z,2.70
2017-04-28T22:05:52.874Z,2.60
2017-04-28T22:08:21.173Z,2.60
2017-04-28T22:10:49.506Z,2.50
2017-04-28T22:13:17.786Z,2.40
2017-04-28T22:16:01.007Z,2.40
2017-04-28T22:18:29.288Z,2.30
2017-04-28T22:20:57.569Z,2.40
2017-04-28T22:23:25.893Z,2.40
2017-04-28T22:25:54.195Z,2.30
2017-04-28T22:28:23.236Z,2.30
2017-04-28T22:30:51.553Z,2.30
2017-04-28T22:33:20.591Z,2.30
2017-04-28T22:35:48.873Z,2.30
2017-04-28T22:38:17.203Z,2.40
2017-04-28T22:40:46.285Z,2.40
2017-04-28T22:43:14.572Z,2.50
2017-04-28T22:45:42.913Z,2.60
2017-04-28T22:48:11.256Z,2.70
2017-04-28T22:50:40.284Z,2.70
2017-04-28T22:53:08.609Z,2.80
2017-04-28T22:55:37.626Z,2.80
2017-04-28T22:58:05.923Z,2.90
2017-04-28T23:00:34.248Z,3.00
2017-04-28T23:03:02.537Z,3.00
2017-04-28T23:05:30.828Z,3.00
2017-04-28T23:07:59.896Z,3.00
2017-04-28T23:10:28.180Z,3.00
2017-04-28T23:12:56.468Z,3.00
2017-04-28T23:15:24.785Z,3.10
2017-04-28T23:17:53.079Z,3.20
2017-04-28T23:20:21.400Z,3.10
2017-04-28T23:22:49.723Z,3.20
2017-04-28T23:25:18.007Z,3.30
2017-04-28T23:27:46.291Z,3.30
2017-04-28T23:30:14.617Z,3.30
2017-04-28T23:32:42.949Z,3.20
2017-04-28T23:35:11.236Z,3.20
2017-04-28T23:37:39.564Z,3.10
2017-04-28T23:40:08.585Z,2.90
2017-04-28T23:42:36.871Z,2.80
2017-04-28T23:45:05.189Z,2.70
2017-04-28T23:47:33.469Z,2.70
2017-04-28T23:50:01.842Z,2.60
2017-04-28T23:52:30.165Z,2.50
2017-04-28T23:54:58.454Z,2.40
2017-04-28T23:57:26.756Z,2.50
2017-04-28T23:59:55.068Z,2.60
